»·PEaware :: N9135K KBUR-KSBD

N9135K :: KBUR-KSBD

FLIGHT INFORMATION

Flight Status: Arrived
Operator: Privately registered:
United States
More flights under this callsign
Pilot: John R. (31973)
Aircraft: CESSNA 172 SKYHAWK
(C172)
More flights by this aircraft type
Origin: KBUR Bob Hope-Burbank
United States
Destination: KSBD San Bernardino Intl
United States
More flights between these airports :: More routes between these airports
Route:
File this flight plan on PilotEdge
Remarks:
Altitude:
(Current/Filed)
3,500ft
Speed:
(Current/Filed)
90kts
Departed: 17-Nov-20 12:14 PM
Arrived: 17-Nov-20 12:50 PM
Distance/Time
Traveled:
56nm/0:36
Distance/Time
To Go:
Arrived

Flight Plot

Page will automatically refresh every two minutes.


Map Options




Map Legend


Flown Route
Filed Route
Departure Airport
Arrival Airport
Navaid (VOR, NDB)
Fix

Horizontal Profiles

Position Reports

Time Latitude Longitude Heading Altitude Ground
Speed
17-Nov-20 12:06 34.200183 -118.365954 0 781ft 0kts
17-Nov-20 12:07 34.200183 -118.365954 0 781ft 0kts
17-Nov-20 12:08 34.200183 -118.365954 0 781ft 0kts
17-Nov-20 12:09 34.200183 -118.365954 0 781ft 0kts
17-Nov-20 12:10 34.199255 -118.365586 187 781ft 10kts
17-Nov-20 12:11 34.198812 -118.368932 198 781ft 8kts
17-Nov-20 12:12 34.198468 -118.368957 177 781ft 0kts
17-Nov-20 12:12 34.197895 -118.367983 91 781ft 29kts
17-Nov-20 12:14 34.196018 -118.338280 132 1330ft 92kts
17-Nov-20 12:14 34.190313 -118.314490 99 1888ft 96kts
17-Nov-20 12:16 34.183849 -118.277070 102 2595ft 97kts
17-Nov-20 12:16 34.178958 -118.250465 102 3090ft 96kts
17-Nov-20 12:18 34.171863 -118.211999 102 3517ft 112kts
17-Nov-20 12:18 34.165979 -118.180168 102 3501ft 118kts
17-Nov-20 12:19 34.159019 -118.142558 102 3488ft 105kts
17-Nov-20 12:20 34.152867 -118.109354 102 3498ft 99kts
17-Nov-20 12:21 34.146806 -118.076704 102 3499ft 99kts
17-Nov-20 12:22 34.140772 -118.044255 102 3498ft 98kts
17-Nov-20 12:23 34.134889 -118.012660 102 3499ft 95kts
17-Nov-20 12:24 34.129059 -117.981402 102 3499ft 95kts
17-Nov-20 12:25 34.123215 -117.950119 102 3500ft 95kts
17-Nov-20 12:26 34.117351 -117.918768 102 3500ft 95kts
17-Nov-20 12:27 34.111488 -117.887475 102 3500ft 95kts
17-Nov-20 12:28 34.105615 -117.856171 102 3500ft 95kts
17-Nov-20 12:29 34.099738 -117.824886 102 3499ft 95kts
17-Nov-20 12:30 34.098630 -117.793017 88 3500ft 95kts
17-Nov-20 12:31 34.096974 -117.761417 110 3504ft 95kts
17-Nov-20 12:32 34.091895 -117.730244 91 3500ft 95kts
17-Nov-20 12:33 34.091662 -117.698226 90 3500ft 95kts
17-Nov-20 12:34 34.091651 -117.666261 90 3500ft 95kts
17-Nov-20 12:35 34.091639 -117.634160 90 3500ft 95kts
17-Nov-20 12:36 34.091619 -117.602118 90 3500ft 95kts
17-Nov-20 12:37 34.091591 -117.569977 90 3500ft 95kts
17-Nov-20 12:38 34.091555 -117.537917 90 3500ft 95kts
17-Nov-20 12:39 34.091510 -117.505905 90 3500ft 95kts
17-Nov-20 12:40 34.091457 -117.473859 90 3500ft 95kts
17-Nov-20 12:41 34.091396 -117.441825 90 3500ft 95kts
17-Nov-20 12:42 34.091327 -117.409811 90 3500ft 95kts
17-Nov-20 12:43 34.091249 -117.377810 90 3500ft 95kts
17-Nov-20 12:44 34.091165 -117.345998 90 3497ft 82kts
17-Nov-20 12:45 34.088012 -117.320081 115 3072ft 85kts
17-Nov-20 12:46 34.079414 -117.296021 97 2315ft 73kts
17-Nov-20 12:47 34.084319 -117.272254 70 1704ft 72kts
17-Nov-20 12:48 34.091195 -117.248958 70 1191ft 65kts
17-Nov-20 12:49 34.094451 -117.240306 32 1160ft 0kts
17-Nov-20 12:50 34.095984 -117.239183 30 1160ft 29kts
17-Nov-20 12:51 34.100332 -117.238934 331 1160ft 14kts
17-Nov-20 12:52 34.103016 -117.242736 277 1160ft 21kts
17-Nov-20 12:53 34.103445 -117.245640 270 1160ft 0kts
17-Nov-20 12:54 34.103445 -117.245640 270 1160ft 0kts

Navigation Log

Ident Type
Flight plan parsing failed, navigation log unavailable